sensor_id;sensor_type;location;lat;lon;timestamp;P1;durP1;ratioP1;P2;durP2;ratioP2
12445;SDS011;6287;50.984;7.022;2023-03-04T00:02:13;46.17;;;18.23;;
12445;SDS011;6287;50.984;7.022;2023-03-04T00:04:42;45.80;;;18.53;;
12445;SDS011;6287;50.984;7.022;2023-03-04T00:07:07;45.97;;;17.63;;
12445;SDS011;6287;50.984;7.022;2023-03-04T00:09:33;44.23;;;17.63;;
12445;SDS011;6287;50.984;7.022;2023-03-04T00:12:01;49.07;;;17.53;;
12445;SDS011;6287;50.984;7.022;2023-03-04T00:14:26;42.73;;;17.67;;
12445;SDS011;6287;50.984;7.022;2023-03-04T00:16:52;47.90;;;18.80;;
12445;SDS011;6287;50.984;7.022;2023-03-04T00:19:20;43.93;;;17.93;;
12445;SDS011;6287;50.984;7.022;2023-03-04T00:21:48;45.67;;;18.80;;
12445;SDS011;6287;50.984;7.022;2023-03-04T00:24:13;44.70;;;17.70;;
12445;SDS011;6287;50.984;7.022;2023-03-04T00:26:39;37.50;;;18.33;;
12445;SDS011;6287;50.984;7.022;2023-03-04T00:29:06;50.60;;;17.93;;
12445;SDS011;6287;50.984;7.022;2023-03-04T00:31:34;45.03;;;18.13;;
12445;SDS011;6287;50.984;7.022;2023-03-04T00:34:02;48.80;;;18.07;;
12445;SDS011;6287;50.984;7.022;2023-03-04T00:36:29;47.13;;;18.83;;
12445;SDS011;6287;50.984;7.022;2023-03-04T00:38:57;45.27;;;18.03;;
12445;SDS011;6287;50.984;7.022;2023-03-04T00:41:25;47.83;;;21.23;;
12445;SDS011;6287;50.984;7.022;2023-03-04T00:43:51;50.37;;;19.03;;
12445;SDS011;6287;50.984;7.022;2023-03-04T00:46:23;43.77;;;16.93;;
12445;SDS011;6287;50.984;7.022;2023-03-04T00:48:51;50.30;;;19.17;;
12445;SDS011;6287;50.984;7.022;2023-03-04T00:51:17;50.00;;;19.70;;
12445;SDS011;6287;50.984;7.022;2023-03-04T00:53:42;53.13;;;19.53;;
12445;SDS011;6287;50.984;7.022;2023-03-04T00:56:08;47.57;;;18.40;;
12445;SDS011;6287;50.984;7.022;2023-03-04T00:58:34;42.27;;;17.83;;
12445;SDS011;6287;50.984;7.022;2023-03-04T01:00:59;49.23;;;19.60;;
12445;SDS011;6287;50.984;7.022;2023-03-04T01:03:30;44.67;;;18.97;;
12445;SDS011;6287;50.984;7.022;2023-03-04T01:05:58;42.17;;;17.87;;
12445;SDS011;6287;50.984;7.022;2023-03-04T01:08:25;50.90;;;18.13;;
12445;SDS011;6287;50.984;7.022;2023-03-04T01:10:53;49.80;;;18.77;;
12445;SDS011;6287;50.984;7.022;2023-03-04T01:13:21;53.33;;;19.27;;
12445;SDS011;6287;50.984;7.022;2023-03-04T01:15:46;46.07;;;18.60;;
12445;SDS011;6287;50.984;7.022;2023-03-04T01:18:14;50.77;;;19.00;;
12445;SDS011;6287;50.984;7.022;2023-03-04T01:20:40;43.90;;;18.40;;
12445;SDS011;6287;50.984;7.022;2023-03-04T01:23:08;51.53;;;19.53;;
12445;SDS011;6287;50.984;7.022;2023-03-04T01:25:35;51.07;;;19.43;;
12445;SDS011;6287;50.984;7.022;2023-03-04T01:28:01;43.50;;;17.77;;
12445;SDS011;6287;50.984;7.022;2023-03-04T01:30:29;42.63;;;17.23;;
12445;SDS011;6287;50.984;7.022;2023-03-04T01:32:54;46.17;;;18.93;;
12445;SDS011;6287;50.984;7.022;2023-03-04T01:35:20;37.33;;;16.23;;
12445;SDS011;6287;50.984;7.022;2023-03-04T01:37:46;44.97;;;17.37;;
12445;SDS011;6287;50.984;7.022;2023-03-04T01:40:16;54.37;;;20.33;;
12445;SDS011;6287;50.984;7.022;2023-03-04T01:42:44;43.90;;;17.37;;
12445;SDS011;6287;50.984;7.022;2023-03-04T01:45:12;50.40;;;20.40;;
12445;SDS011;6287;50.984;7.022;2023-03-04T01:47:40;48.33;;;19.37;;
12445;SDS011;6287;50.984;7.022;2023-03-04T01:50:18;48.60;;;18.97;;
12445;SDS011;6287;50.984;7.022;2023-03-04T01:52:47;41.20;;;18.40;;
12445;SDS011;6287;50.984;7.022;2023-03-04T01:55:15;41.27;;;17.40;;
12445;SDS011;6287;50.984;7.022;2023-03-04T01:57:42;46.30;;;19.57;;
12445;SDS011;6287;50.984;7.022;2023-03-04T02:00:13;47.87;;;19.80;;
12445;SDS011;6287;50.984;7.022;2023-03-04T02:02:45;50.20;;;20.07;;
12445;SDS011;6287;50.984;7.022;2023-03-04T02:05:14;46.93;;;18.70;;
12445;SDS011;6287;50.984;7.022;2023-03-04T02:07:41;46.43;;;19.47;;
12445;SDS011;6287;50.984;7.022;2023-03-04T02:10:07;53.07;;;19.10;;
12445;SDS011;6287;50.984;7.022;2023-03-04T02:12:36;52.40;;;19.40;;
12445;SDS011;6287;50.984;7.022;2023-03-04T02:15:02;43.73;;;18.53;;
12445;SDS011;6287;50.984;7.022;2023-03-04T02:17:28;48.10;;;20.27;;
12445;SDS011;6287;50.984;7.022;2023-03-04T02:20:06;45.97;;;18.40;;
12445;SDS011;6287;50.984;7.022;2023-03-04T02:22:36;46.07;;;18.70;;
12445;SDS011;6287;50.984;7.022;2023-03-04T02:25:08;46.83;;;18.67;;
12445;SDS011;6287;50.984;7.022;2023-03-04T02:27:37;49.13;;;18.87;;
12445;SDS011;6287;50.984;7.022;2023-03-04T02:30:05;48.47;;;19.77;;
12445;SDS011;6287;50.984;7.022;2023-03-04T02:32:34;49.93;;;18.33;;
12445;SDS011;6287;50.984;7.022;2023-03-04T02:34:59;47.83;;;18.40;;
12445;SDS011;6287;50.984;7.022;2023-03-04T02:37:27;47.17;;;20.60;;
12445;SDS011;6287;50.984;7.022;2023-03-04T02:39:53;49.97;;;19.27;;
12445;SDS011;6287;50.984;7.022;2023-03-04T02:42:21;51.57;;;19.77;;
12445;SDS011;6287;50.984;7.022;2023-03-04T02:44:58;45.63;;;18.80;;
12445;SDS011;6287;50.984;7.022;2023-03-04T02:47:31;45.50;;;17.97;;
12445;SDS011;6287;50.984;7.022;2023-03-04T02:50:02;48.17;;;19.30;;
12445;SDS011;6287;50.984;7.022;2023-03-04T02:52:30;50.17;;;19.53;;
12445;SDS011;6287;50.984;7.022;2023-03-04T02:54:55;52.77;;;18.90;;
12445;SDS011;6287;50.984;7.022;2023-03-04T02:57:21;48.20;;;19.03;;
12445;SDS011;6287;50.984;7.022;2023-03-04T02:59:49;51.03;;;19.17;;
12445;SDS011;6287;50.984;7.022;2023-03-04T03:02:15;45.30;;;18.53;;
12445;SDS011;6287;50.984;7.022;2023-03-04T03:04:41;47.13;;;19.17;;
12445;SDS011;6287;50.984;7.022;2023-03-04T03:07:06;46.40;;;18.07;;
12445;SDS011;6287;50.984;7.022;2023-03-04T03:09:32;46.23;;;19.20;;
12445;SDS011;6287;50.984;7.022;2023-03-04T03:12:01;48.10;;;19.00;;
12445;SDS011;6287;50.984;7.022;2023-03-04T03:14:26;43.23;;;19.27;;
12445;SDS011;6287;50.984;7.022;2023-03-04T03:16:54;46.77;;;19.33;;
12445;SDS011;6287;50.984;7.022;2023-03-04T03:19:22;48.40;;;19.03;;
12445;SDS011;6287;50.984;7.022;2023-03-04T03:21:48;47.47;;;19.17;;
12445;SDS011;6287;50.984;7.022;2023-03-04T03:24:16;52.20;;;18.63;;
12445;SDS011;6287;50.984;7.022;2023-03-04T03:26:44;47.80;;;18.03;;
12445;SDS011;6287;50.984;7.022;2023-03-04T03:29:10;47.70;;;19.50;;
12445;SDS011;6287;50.984;7.022;2023-03-04T03:31:38;50.73;;;20.17;;
12445;SDS011;6287;50.984;7.022;2023-03-04T03:34:06;50.20;;;19.57;;
12445;SDS011;6287;50.984;7.022;2023-03-04T03:36:34;44.13;;;19.40;;
12445;SDS011;6287;50.984;7.022;2023-03-04T03:38:59;44.47;;;17.83;;
12445;SDS011;6287;50.984;7.022;2023-03-04T03:41:25;47.70;;;19.20;;
12445;SDS011;6287;50.984;7.022;2023-03-04T03:43:50;48.43;;;19.20;;
12445;SDS011;6287;50.984;7.022;2023-03-04T03:46:16;50.00;;;19.13;;
12445;SDS011;6287;50.984;7.022;2023-03-04T03:48:46;47.97;;;19.60;;
12445;SDS011;6287;50.984;7.022;2023-03-04T03:51:17;45.93;;;18.00;;
12445;SDS011;6287;50.984;7.022;2023-03-04T03:53:51;50.27;;;19.93;;
12445;SDS011;6287;50.984;7.022;2023-03-04T03:56:17;51.27;;;18.70;;
12445;SDS011;6287;50.984;7.022;2023-03-04T03:58:45;48.47;;;18.23;;
12445;SDS011;6287;50.984;7.022;2023-03-04T04:01:18;52.87;;;18.93;;
12445;SDS011;6287;50.984;7.022;2023-03-04T04:03:46;38.53;;;17.57;;
12445;SDS011;6287;50.984;7.022;2023-03-04T04:06:12;49.67;;;18.90;;
12445;SDS011;6287;50.984;7.022;2023-03-04T04:08:37;48.97;;;18.30;;
12445;SDS011;6287;50.984;7.022;2023-03-04T04:11:08;47.13;;;19.30;;
12445;SDS011;6287;50.984;7.022;2023-03-04T04:13:37;43.57;;;17.73;;
12445;SDS011;6287;50.984;7.022;2023-03-04T04:16:02;46.10;;;17.93;;
12445;SDS011;6287;50.984;7.022;2023-03-04T04:18:31;43.37;;;17.97;;
12445;SDS011;6287;50.984;7.022;2023-03-04T04:20:56;48.30;;;18.10;;
12445;SDS011;6287;50.984;7.022;2023-03-04T04:23:22;50.03;;;18.80;;
12445;SDS011;6287;50.984;7.022;2023-03-04T04:25:50;44.67;;;18.60;;
12445;SDS011;6287;50.984;7.022;2023-03-04T04:28:18;48.73;;;18.17;;
12445;SDS011;6287;50.984;7.022;2023-03-04T04:30:46;47.27;;;17.83;;
12445;SDS011;6287;50.984;7.022;2023-03-04T04:33:14;41.47;;;17.10;;
12445;SDS011;6287;50.984;7.022;2023-03-04T04:35:43;50.97;;;19.57;;
12445;SDS011;6287;50.984;7.022;2023-03-04T04:38:08;48.83;;;18.97;;
12445;SDS011;6287;50.984;7.022;2023-03-04T04:40:34;51.83;;;19.67;;
12445;SDS011;6287;50.984;7.022;2023-03-04T04:43:01;57.50;;;19.10;;
12445;SDS011;6287;50.984;7.022;2023-03-04T04:45:29;40.53;;;17.47;;
12445;SDS011;6287;50.984;7.022;2023-03-04T04:47:56;45.90;;;18.27;;
12445;SDS011;6287;50.984;7.022;2023-03-04T04:50:24;44.33;;;19.27;;
12445;SDS011;6287;50.984;7.022;2023-03-04T04:52:54;45.73;;;18.93;;
12445;SDS011;6287;50.984;7.022;2023-03-04T04:55:22;50.97;;;19.10;;
12445;SDS011;6287;50.984;7.022;2023-03-04T04:57:50;44.73;;;18.10;;
12445;SDS011;6287;50.984;7.022;2023-03-04T05:00:16;46.10;;;19.43;;
12445;SDS011;6287;50.984;7.022;2023-03-04T05:02:45;49.03;;;18.93;;
12445;SDS011;6287;50.984;7.022;2023-03-04T05:05:12;49.40;;;19.33;;
12445;SDS011;6287;50.984;7.022;2023-03-04T05:07:38;48.47;;;19.77;;
12445;SDS011;6287;50.984;7.022;2023-03-04T05:10:04;42.67;;;18.40;;
12445;SDS011;6287;50.984;7.022;2023-03-04T05:12:29;50.27;;;19.13;;
12445;SDS011;6287;50.984;7.022;2023-03-04T05:14:55;47.20;;;19.27;;
12445;SDS011;6287;50.984;7.022;2023-03-04T05:17:21;48.40;;;18.67;;
12445;SDS011;6287;50.984;7.022;2023-03-04T05:19:49;47.93;;;18.20;;
12445;SDS011;6287;50.984;7.022;2023-03-04T05:22:17;44.77;;;16.33;;
12445;SDS011;6287;50.984;7.022;2023-03-04T05:24:42;46.13;;;18.23;;
12445;SDS011;6287;50.984;7.022;2023-03-04T05:27:08;49.03;;;19.23;;
12445;SDS011;6287;50.984;7.022;2023-03-04T05:29:34;43.30;;;18.07;;
12445;SDS011;6287;50.984;7.022;2023-03-04T05:32:02;41.67;;;16.33;;
12445;SDS011;6287;50.984;7.022;2023-03-04T05:34:28;47.07;;;19.17;;
12445;SDS011;6287;50.984;7.022;2023-03-04T05:36:54;49.73;;;18.13;;
12445;SDS011;6287;50.984;7.022;2023-03-04T05:39:21;48.77;;;19.17;;
12445;SDS011;6287;50.984;7.022;2023-03-04T05:41:50;41.13;;;17.70;;
12445;SDS011;6287;50.984;7.022;2023-03-04T05:44:17;44.83;;;17.93;;
12445;SDS011;6287;50.984;7.022;2023-03-04T05:46:43;44.97;;;17.10;;
12445;SDS011;6287;50.984;7.022;2023-03-04T05:49:11;42.77;;;18.37;;
12445;SDS011;6287;50.984;7.022;2023-03-04T05:51:36;50.30;;;19.80;;
12445;SDS011;6287;50.984;7.022;2023-03-04T05:54:02;43.37;;;17.43;;
12445;SDS011;6287;50.984;7.022;2023-03-04T05:56:27;42.40;;;17.60;;
12445;SDS011;6287;50.984;7.022;2023-03-04T05:58:57;45.53;;;17.77;;
12445;SDS011;6287;50.984;7.022;2023-03-04T06:01:23;43.43;;;18.33;;
12445;SDS011;6287;50.984;7.022;2023-03-04T06:03:49;41.10;;;17.27;;
12445;SDS011;6287;50.984;7.022;2023-03-04T06:06:14;44.97;;;19.43;;
12445;SDS011;6287;50.984;7.022;2023-03-04T06:08:43;40.40;;;17.63;;
12445;SDS011;6287;50.984;7.022;2023-03-04T06:11:08;46.40;;;18.17;;
12445;SDS011;6287;50.984;7.022;2023-03-04T06:13:34;40.37;;;17.23;;
12445;SDS011;6287;50.984;7.022;2023-03-04T06:16:00;47.20;;;18.03;;
12445;SDS011;6287;50.984;7.022;2023-03-04T06:18:32;42.33;;;16.53;;
12445;SDS011;6287;50.984;7.022;2023-03-04T06:21:00;45.07;;;17.00;;
12445;SDS011;6287;50.984;7.022;2023-03-04T06:23:27;37.47;;;16.43;;
12445;SDS011;6287;50.984;7.022;2023-03-04T06:25:54;43.73;;;18.70;;
12445;SDS011;6287;50.984;7.022;2023-03-04T06:28:23;37.87;;;16.67;;
12445;SDS011;6287;50.984;7.022;2023-03-04T06:30:52;48.70;;;17.73;;
12445;SDS011;6287;50.984;7.022;2023-03-04T06:33:19;37.00;;;15.77;;
12445;SDS011;6287;50.984;7.022;2023-03-04T06:35:44;43.00;;;17.27;;
12445;SDS011;6287;50.984;7.022;2023-03-04T06:38:10;41.73;;;15.60;;
12445;SDS011;6287;50.984;7.022;2023-03-04T06:40:36;45.10;;;16.03;;
12445;SDS011;6287;50.984;7.022;2023-03-04T06:43:01;41.77;;;17.20;;
12445;SDS011;6287;50.984;7.022;2023-03-04T06:45:27;36.03;;;16.90;;
12445;SDS011;6287;50.984;7.022;2023-03-04T06:47:53;38.53;;;15.57;;
12445;SDS011;6287;50.984;7.022;2023-03-04T06:50:19;40.60;;;15.83;;
12445;SDS011;6287;50.984;7.022;2023-03-04T06:52:47;37.93;;;15.77;;
12445;SDS011;6287;50.984;7.022;2023-03-04T06:55:13;37.57;;;15.60;;
12445;SDS011;6287;50.984;7.022;2023-03-04T06:57:39;42.23;;;15.03;;
12445;SDS011;6287;50.984;7.022;2023-03-04T07:00:08;38.23;;;14.13;;
12445;SDS011;6287;50.984;7.022;2023-03-04T07:02:34;35.43;;;13.97;;
12445;SDS011;6287;50.984;7.022;2023-03-04T07:05:02;41.93;;;15.10;;
12445;SDS011;6287;50.984;7.022;2023-03-04T07:07:32;33.20;;;14.70;;
12445;SDS011;6287;50.984;7.022;2023-03-04T07:09:57;31.37;;;13.33;;
12445;SDS011;6287;50.984;7.022;2023-03-04T07:12:23;39.67;;;14.50;;
12445;SDS011;6287;50.984;7.022;2023-03-04T07:14:51;26.17;;;11.57;;
12445;SDS011;6287;50.984;7.022;2023-03-04T07:17:17;28.33;;;11.43;;
12445;SDS011;6287;50.984;7.022;2023-03-04T07:19:47;26.67;;;9.43;;
12445;SDS011;6287;50.984;7.022;2023-03-04T07:22:12;21.10;;;9.53;;
12445;SDS011;6287;50.984;7.022;2023-03-04T07:24:42;26.03;;;9.63;;
12445;SDS011;6287;50.984;7.022;2023-03-04T07:27:10;22.43;;;8.50;;
12445;SDS011;6287;50.984;7.022;2023-03-04T07:29:35;21.13;;;7.90;;
12445;SDS011;6287;50.984;7.022;2023-03-04T07:32:06;17.73;;;7.63;;
12445;SDS011;6287;50.984;7.022;2023-03-04T07:34:34;16.83;;;7.83;;
12445;SDS011;6287;50.984;7.022;2023-03-04T07:37:04;17.63;;;7.20;;
12445;SDS011;6287;50.984;7.022;2023-03-04T07:39:32;17.43;;;7.07;;
12445;SDS011;6287;50.984;7.022;2023-03-04T07:42:01;14.37;;;6.40;;
12445;SDS011;6287;50.984;7.022;2023-03-04T07:44:32;11.50;;;5.43;;
12445;SDS011;6287;50.984;7.022;2023-03-04T07:47:01;16.30;;;6.10;;
12445;SDS011;6287;50.984;7.022;2023-03-04T07:49:27;11.20;;;4.87;;
12445;SDS011;6287;50.984;7.022;2023-03-04T07:51:52;11.97;;;5.27;;
12445;SDS011;6287;50.984;7.022;2023-03-04T07:54:18;11.53;;;4.40;;
12445;SDS011;6287;50.984;7.022;2023-03-04T07:56:47;9.40;;;4.60;;
12445;SDS011;6287;50.984;7.022;2023-03-04T07:59:12;8.17;;;4.23;;
12445;SDS011;6287;50.984;7.022;2023-03-04T08:01:38;9.80;;;4.03;;
12445;SDS011;6287;50.984;7.022;2023-03-04T08:04:04;8.17;;;4.70;;
12445;SDS011;6287;50.984;7.022;2023-03-04T08:06:31;11.77;;;4.50;;
12445;SDS011;6287;50.984;7.022;2023-03-04T08:09:01;6.10;;;3.43;;
12445;SDS011;6287;50.984;7.022;2023-03-04T08:11:31;10.90;;;4.23;;
12445;SDS011;6287;50.984;7.022;2023-03-04T08:13:57;8.10;;;3.80;;
12445;SDS011;6287;50.984;7.022;2023-03-04T08:16:22;8.70;;;3.40;;
12445;SDS011;6287;50.984;7.022;2023-03-04T08:18:52;6.83;;;3.87;;
12445;SDS011;6287;50.984;7.022;2023-03-04T08:21:22;11.03;;;3.33;;
12445;SDS011;6287;50.984;7.022;2023-03-04T08:23:50;6.27;;;2.70;;
12445;SDS011;6287;50.984;7.022;2023-03-04T08:26:27;9.07;;;2.77;;
12445;SDS011;6287;50.984;7.022;2023-03-04T08:28:55;10.70;;;3.00;;
12445;SDS011;6287;50.984;7.022;2023-03-04T08:31:21;5.97;;;2.57;;
12445;SDS011;6287;50.984;7.022;2023-03-04T08:33:50;5.70;;;2.07;;
12445;SDS011;6287;50.984;7.022;2023-03-04T08:36:18;5.23;;;2.60;;
12445;SDS011;6287;50.984;7.022;2023-03-04T08:38:46;4.87;;;2.07;;
12445;SDS011;6287;50.984;7.022;2023-03-04T08:41:12;5.70;;;2.03;;
12445;SDS011;6287;50.984;7.022;2023-03-04T08:43:39;5.40;;;2.10;;
12445;SDS011;6287;50.984;7.022;2023-03-04T08:46:05;2.60;;;1.70;;
12445;SDS011;6287;50.984;7.022;2023-03-04T08:48:33;6.43;;;2.03;;
12445;SDS011;6287;50.984;7.022;2023-03-04T08:51:00;4.60;;;1.63;;
12445;SDS011;6287;50.984;7.022;2023-03-04T08:53:33;4.80;;;2.40;;
12445;SDS011;6287;50.984;7.022;2023-03-04T08:55:58;7.10;;;2.17;;
12445;SDS011;6287;50.984;7.022;2023-03-04T08:58:24;2.80;;;2.20;;
12445;SDS011;6287;50.984;7.022;2023-03-04T09:00:50;5.93;;;1.90;;
12445;SDS011;6287;50.984;7.022;2023-03-04T09:03:16;4.20;;;2.10;;
12445;SDS011;6287;50.984;7.022;2023-03-04T09:05:45;5.97;;;2.33;;
12445;SDS011;6287;50.984;7.022;2023-03-04T09:08:14;5.63;;;2.83;;
12445;SDS011;6287;50.984;7.022;2023-03-04T09:10:40;5.57;;;2.50;;
12445;SDS011;6287;50.984;7.022;2023-03-04T09:13:06;2.93;;;2.37;;
12445;SDS011;6287;50.984;7.022;2023-03-04T09:15:45;5.27;;;2.47;;
12445;SDS011;6287;50.984;7.022;2023-03-04T09:18:12;4.97;;;2.20;;
12445;SDS011;6287;50.984;7.022;2023-03-04T09:20:41;4.40;;;2.07;;
12445;SDS011;6287;50.984;7.022;2023-03-04T09:23:09;3.03;;;1.70;;
12445;SDS011;6287;50.984;7.022;2023-03-04T09:25:37;2.33;;;1.83;;
12445;SDS011;6287;50.984;7.022;2023-03-04T09:28:06;6.87;;;2.00;;
12445;SDS011;6287;50.984;7.022;2023-03-04T09:30:32;5.23;;;1.87;;
12445;SDS011;6287;50.984;7.022;2023-03-04T09:32:59;5.97;;;2.63;;
12445;SDS011;6287;50.984;7.022;2023-03-04T09:35:25;3.70;;;2.30;;
12445;SDS011;6287;50.984;7.022;2023-03-04T09:37:57;5.27;;;2.87;;
12445;SDS011;6287;50.984;7.022;2023-03-04T09:40:30;6.70;;;3.10;;
12445;SDS011;6287;50.984;7.022;2023-03-04T09:43:06;8.13;;;3.93;;
12445;SDS011;6287;50.984;7.022;2023-03-04T09:48:44;7.53;;;3.63;;
12445;SDS011;6287;50.984;7.022;2023-03-04T09:53:48;5.80;;;2.70;;
12445;SDS011;6287;50.984;7.022;2023-03-04T09:56:21;5.67;;;3.00;;
12445;SDS011;6287;50.984;7.022;2023-03-04T09:59:00;6.60;;;3.30;;
12445;SDS011;6287;50.984;7.022;2023-03-04T10:01:54;5.77;;;3.40;;
12445;SDS011;6287;50.984;7.022;2023-03-04T10:07:17;7.70;;;3.53;;
12445;SDS011;6287;50.984;7.022;2023-03-04T10:10:05;7.93;;;4.17;;
12445;SDS011;6287;50.984;7.022;2023-03-04T10:12:42;9.03;;;5.27;;
12445;SDS011;6287;50.984;7.022;2023-03-04T10:18:19;11.37;;;5.87;;
12445;SDS011;6287;50.984;7.022;2023-03-04T10:21:08;11.10;;;5.13;;
12445;SDS011;6287;50.984;7.022;2023-03-04T10:23:39;5.93;;;4.00;;
12445;SDS011;6287;50.984;7.022;2023-03-04T10:26:14;7.80;;;4.30;;
12445;SDS011;6287;50.984;7.022;2023-03-04T10:28:47;6.30;;;3.40;;
12445;SDS011;6287;50.984;7.022;2023-03-04T10:31:20;7.50;;;3.43;;
12445;SDS011;6287;50.984;7.022;2023-03-04T10:33:55;6.87;;;3.43;;
12445;SDS011;6287;50.984;7.022;2023-03-04T10:39:04;8.83;;;3.03;;
12445;SDS011;6287;50.984;7.022;2023-03-04T10:41:40;5.20;;;2.40;;
12445;SDS011;6287;50.984;7.022;2023-03-04T10:46:36;2.43;;;2.23;;
12445;SDS011;6287;50.984;7.022;2023-03-04T10:49:15;3.00;;;1.90;;
12445;SDS011;6287;50.984;7.022;2023-03-04T10:51:43;4.33;;;2.73;;
12445;SDS011;6287;50.984;7.022;2023-03-04T10:54:22;4.83;;;2.73;;
12445;SDS011;6287;50.984;7.022;2023-03-04T11:04:53;4.47;;;2.10;;
12445;SDS011;6287;50.984;7.022;2023-03-04T11:07:22;1.83;;;1.73;;
12445;SDS011;6287;50.984;7.022;2023-03-04T11:09:49;3.40;;;1.83;;
12445;SDS011;6287;50.984;7.022;2023-03-04T11:12:19;2.47;;;1.47;;
12445;SDS011;6287;50.984;7.022;2023-03-04T11:14:47;1.80;;;1.70;;
12445;SDS011;6287;50.984;7.022;2023-03-04T11:17:20;4.17;;;2.20;;
12445;SDS011;6287;50.984;7.022;2023-03-04T11:19:50;4.90;;;2.30;;
12445;SDS011;6287;50.984;7.022;2023-03-04T11:22:20;3.20;;;1.70;;
12445;SDS011;6287;50.984;7.022;2023-03-04T11:24:51;2.67;;;2.13;;
12445;SDS011;6287;50.984;7.022;2023-03-04T11:27:43;2.33;;;1.90;;
12445;SDS011;6287;50.984;7.022;2023-03-04T11:33:10;3.90;;;2.27;;
12445;SDS011;6287;50.984;7.022;2023-03-04T11:38:38;2.93;;;1.93;;
12445;SDS011;6287;50.984;7.022;2023-03-04T11:43:59;2.03;;;1.67;;
12445;SDS011;6287;50.984;7.022;2023-03-04T11:54:34;3.70;;;1.10;;
12445;SDS011;6287;50.984;7.022;2023-03-04T12:00:37;2.23;;;1.23;;
12445;SDS011;6287;50.984;7.022;2023-03-04T12:08:19;2.73;;;1.60;;
12445;SDS011;6287;50.984;7.022;2023-03-04T12:24:32;1.40;;;1.30;;
12445;SDS011;6287;50.984;7.022;2023-03-04T12:37:55;1.10;;;1.00;;
12445;SDS011;6287;50.984;7.022;2023-03-04T12:43:41;2.43;;;1.13;;
12445;SDS011;6287;50.984;7.022;2023-03-04T12:54:49;3.43;;;2.33;;
12445;SDS011;6287;50.984;7.022;2023-03-04T12:57:25;2.10;;;1.00;;
12445;SDS011;6287;50.984;7.022;2023-03-04T13:11:02;3.53;;;1.40;;
12445;SDS011;6287;50.984;7.022;2023-03-04T13:14:06;1.17;;;1.17;;
12445;SDS011;6287;50.984;7.022;2023-03-04T13:16:45;1.07;;;1.07;;
12445;SDS011;6287;50.984;7.022;2023-03-04T13:51:31;3.20;;;2.40;;
12445;SDS011;6287;50.984;7.022;2023-03-04T13:56:40;2.63;;;1.90;;
12445;SDS011;6287;50.984;7.022;2023-03-04T14:12:29;1.73;;;1.37;;
12445;SDS011;6287;50.984;7.022;2023-03-04T14:15:00;1.63;;;1.30;;
12445;SDS011;6287;50.984;7.022;2023-03-04T14:17:32;1.67;;;1.17;;
12445;SDS011;6287;50.984;7.022;2023-03-04T14:20:01;1.03;;;1.03;;
12445;SDS011;6287;50.984;7.022;2023-03-04T14:22:29;1.00;;;1.00;;
12445;SDS011;6287;50.984;7.022;2023-03-04T14:27:43;1.40;;;0.90;;
12445;SDS011;6287;50.984;7.022;2023-03-04T14:30:25;3.37;;;1.00;;
12445;SDS011;6287;50.984;7.022;2023-03-04T14:32:55;3.10;;;1.10;;
12445;SDS011;6287;50.984;7.022;2023-03-04T14:35:26;2.20;;;1.20;;
12445;SDS011;6287;50.984;7.022;2023-03-04T14:40:49;1.83;;;0.97;;
12445;SDS011;6287;50.984;7.022;2023-03-04T14:43:18;2.17;;;1.90;;
12445;SDS011;6287;50.984;7.022;2023-03-04T14:45:49;1.27;;;1.17;;
12445;SDS011;6287;50.984;7.022;2023-03-04T14:48:27;2.13;;;1.10;;
12445;SDS011;6287;50.984;7.022;2023-03-04T14:51:02;1.50;;;1.40;;
12445;SDS011;6287;50.984;7.022;2023-03-04T14:53:29;2.67;;;1.60;;
12445;SDS011;6287;50.984;7.022;2023-03-04T14:58:36;1.70;;;1.60;;
12445;SDS011;6287;50.984;7.022;2023-03-04T15:01:06;2.17;;;1.73;;
12445;SDS011;6287;50.984;7.022;2023-03-04T15:04:05;1.77;;;1.17;;
12445;SDS011;6287;50.984;7.022;2023-03-04T15:06:50;1.60;;;1.10;;
12445;SDS011;6287;50.984;7.022;2023-03-04T15:22:35;1.53;;;1.30;;
12445;SDS011;6287;50.984;7.022;2023-03-04T15:25:20;3.87;;;1.47;;
12445;SDS011;6287;50.984;7.022;2023-03-04T15:27:51;1.50;;;1.30;;
12445;SDS011;6287;50.984;7.022;2023-03-04T15:32:47;4.10;;;1.40;;
12445;SDS011;6287;50.984;7.022;2023-03-04T15:35:14;3.47;;;2.23;;
12445;SDS011;6287;50.984;7.022;2023-03-04T15:37:41;8.40;;;3.67;;
12445;SDS011;6287;50.984;7.022;2023-03-04T15:40:13;3.43;;;2.33;;
12445;SDS011;6287;50.984;7.022;2023-03-04T15:42:44;1.93;;;1.03;;
12445;SDS011;6287;50.984;7.022;2023-03-04T15:45:27;1.93;;;1.60;;
12445;SDS011;6287;50.984;7.022;2023-03-04T15:47:55;1.67;;;1.50;;
12445;SDS011;6287;50.984;7.022;2023-03-04T15:50:21;4.67;;;1.77;;
12445;SDS011;6287;50.984;7.022;2023-03-04T15:52:50;1.23;;;1.13;;
12445;SDS011;6287;50.984;7.022;2023-03-04T15:55:22;1.87;;;1.67;;
12445;SDS011;6287;50.984;7.022;2023-03-04T16:01:14;1.57;;;1.50;;
12445;SDS011;6287;50.984;7.022;2023-03-04T16:04:08;1.27;;;1.20;;
12445;SDS011;6287;50.984;7.022;2023-03-04T16:06:46;2.10;;;1.90;;
12445;SDS011;6287;50.984;7.022;2023-03-04T16:09:17;1.40;;;1.30;;
12445;SDS011;6287;50.984;7.022;2023-03-04T16:11:45;5.20;;;2.40;;
12445;SDS011;6287;50.984;7.022;2023-03-04T16:14:12;1.70;;;1.60;;
12445;SDS011;6287;50.984;7.022;2023-03-04T16:16:39;2.87;;;1.50;;
12445;SDS011;6287;50.984;7.022;2023-03-04T16:22:37;1.23;;;1.23;;
12445;SDS011;6287;50.984;7.022;2023-03-04T16:25:04;1.60;;;1.50;;
12445;SDS011;6287;50.984;7.022;2023-03-04T16:27:30;1.27;;;1.17;;
12445;SDS011;6287;50.984;7.022;2023-03-04T16:29:56;1.77;;;1.40;;
12445;SDS011;6287;50.984;7.022;2023-03-04T16:32:22;2.10;;;1.70;;
12445;SDS011;6287;50.984;7.022;2023-03-04T16:34:48;2.03;;;1.70;;
12445;SDS011;6287;50.984;7.022;2023-03-04T16:37:15;1.63;;;1.53;;
12445;SDS011;6287;50.984;7.022;2023-03-04T16:39:48;3.70;;;1.80;;
12445;SDS011;6287;50.984;7.022;2023-03-04T16:42:19;1.60;;;1.50;;
12445;SDS011;6287;50.984;7.022;2023-03-04T16:44:47;2.70;;;1.83;;
12445;SDS011;6287;50.984;7.022;2023-03-04T16:47:16;2.83;;;1.90;;
12445;SDS011;6287;50.984;7.022;2023-03-04T16:49:44;3.80;;;1.70;;
12445;SDS011;6287;50.984;7.022;2023-03-04T16:52:16;1.97;;;1.80;;
12445;SDS011;6287;50.984;7.022;2023-03-04T16:54:49;1.90;;;1.70;;
12445;SDS011;6287;50.984;7.022;2023-03-04T16:57:15;3.37;;;2.00;;
12445;SDS011;6287;50.984;7.022;2023-03-04T16:59:43;1.67;;;1.57;;
12445;SDS011;6287;50.984;7.022;2023-03-04T17:02:14;2.63;;;2.00;;
12445;SDS011;6287;50.984;7.022;2023-03-04T17:04:40;5.37;;;1.83;;
12445;SDS011;6287;50.984;7.022;2023-03-04T17:07:11;2.67;;;2.17;;
12445;SDS011;6287;50.984;7.022;2023-03-04T17:09:41;4.80;;;2.90;;
12445;SDS011;6287;50.984;7.022;2023-03-04T17:12:08;3.67;;;2.43;;
12445;SDS011;6287;50.984;7.022;2023-03-04T17:14:58;3.63;;;3.00;;
12445;SDS011;6287;50.984;7.022;2023-03-04T17:18:14;2.50;;;2.30;;
12445;SDS011;6287;50.984;7.022;2023-03-04T17:21:00;2.50;;;2.30;;
12445;SDS011;6287;50.984;7.022;2023-03-04T17:23:27;4.77;;;3.20;;
12445;SDS011;6287;50.984;7.022;2023-03-04T17:25:54;5.30;;;3.20;;
12445;SDS011;6287;50.984;7.022;2023-03-04T17:28:23;6.63;;;3.13;;
12445;SDS011;6287;50.984;7.022;2023-03-04T17:30:51;5.67;;;4.13;;
12445;SDS011;6287;50.984;7.022;2023-03-04T17:33:19;7.17;;;4.77;;
12445;SDS011;6287;50.984;7.022;2023-03-04T17:35:45;4.87;;;3.50;;
12445;SDS011;6287;50.984;7.022;2023-03-04T17:38:12;5.80;;;3.90;;
12445;SDS011;6287;50.984;7.022;2023-03-04T17:40:39;7.23;;;4.03;;
12445;SDS011;6287;50.984;7.022;2023-03-04T17:43:07;6.87;;;3.77;;
12445;SDS011;6287;50.984;7.022;2023-03-04T17:45:39;4.67;;;2.73;;
12445;SDS011;6287;50.984;7.022;2023-03-04T17:48:11;7.43;;;3.50;;
12445;SDS011;6287;50.984;7.022;2023-03-04T17:50:49;8.63;;;3.73;;
12445;SDS011;6287;50.984;7.022;2023-03-04T17:53:18;12.00;;;4.97;;
12445;SDS011;6287;50.984;7.022;2023-03-04T17:55:49;12.40;;;6.40;;
12445;SDS011;6287;50.984;7.022;2023-03-04T17:58:18;17.77;;;8.13;;